createdAt,value
2022-10-26T00:01:29.637Z,5.37
2022-10-26T00:04:36.113Z,8.73
2022-10-26T00:07:42.328Z,10.63
2022-10-26T00:10:48.660Z,17.67
2022-10-26T00:13:55.043Z,15.80
2022-10-26T00:17:03.099Z,7.83
2022-10-26T00:20:10.349Z,13.97
2022-10-26T00:23:16.551Z,9.23
2022-10-26T00:26:22.834Z,7.73
2022-10-26T00:29:29.375Z,12.00
2022-10-26T00:32:37.347Z,17.53
2022-10-26T00:35:46.610Z,13.57
2022-10-26T00:38:54.413Z,11.43
2022-10-26T00:42:00.735Z,14.13
2022-10-26T00:45:18.664Z,8.83
2022-10-26T00:48:29.952Z,7.60
2022-10-26T00:51:40.020Z,9.40
2022-10-26T00:54:46.894Z,8.90
2022-10-26T00:57:54.782Z,5.53
2022-10-26T01:01:00.774Z,8.43
2022-10-26T01:04:08.544Z,6.60
2022-10-26T01:07:15.811Z,10.27
2022-10-26T01:10:22.658Z,14.97
2022-10-26T01:13:31.459Z,9.70
2022-10-26T01:16:50.062Z,6.20
2022-10-26T01:20:36.888Z,9.10
2022-10-26T01:24:05.946Z,6.23
2022-10-26T01:27:26.339Z,7.33
2022-10-26T01:30:40.287Z,9.37
2022-10-26T01:33:52.496Z,15.63
2022-10-26T01:37:02.312Z,13.90
2022-10-26T01:40:13.375Z,16.67
2022-10-26T01:43:21.327Z,13.60
2022-10-26T01:46:34.015Z,17.50
2022-10-26T01:49:43.797Z,12.03
2022-10-26T01:52:51.767Z,9.53
2022-10-26T01:55:58.018Z,6.23
2022-10-26T01:59:34.862Z,3.87
2022-10-26T02:02:56.056Z,4.90
2022-10-26T02:06:13.352Z,6.57
2022-10-26T02:09:28.788Z,5.00
2022-10-26T02:12:46.954Z,3.93
2022-10-26T02:15:58.450Z,7.33
2022-10-26T02:19:11.678Z,10.13
2022-10-26T02:22:23.378Z,11.10
2022-10-26T02:25:33.382Z,39.90
2022-10-26T02:28:43.817Z,12.13
2022-10-26T02:31:52.799Z,12.70
2022-10-26T02:35:03.180Z,7.67
2022-10-26T02:38:12.230Z,5.33
2022-10-26T02:41:21.676Z,4.57
2022-10-26T02:44:30.963Z,12.53
2022-10-26T02:47:37.502Z,4.83
2022-10-26T02:50:55.124Z,9.47
2022-10-26T02:54:08.703Z,7.00
2022-10-26T02:57:18.416Z,4.73
2022-10-26T03:00:24.619Z,6.00
2022-10-26T03:03:30.723Z,6.43
2022-10-26T03:06:38.300Z,4.47
2022-10-26T03:09:44.320Z,56.87
2022-10-26T03:12:50.993Z,59.97
2022-10-26T03:15:58.207Z,34.17
2022-10-26T03:19:07.299Z,37.53
2022-10-26T03:22:15.000Z,36.87
2022-10-26T03:25:20.935Z,27.80
2022-10-26T03:28:27.788Z,33.80
2022-10-26T03:31:33.851Z,18.97
2022-10-26T03:34:40.088Z,29.30
2022-10-26T03:37:48.020Z,31.63
2022-10-26T03:40:54.116Z,11.83
2022-10-26T03:44:00.591Z,13.97
2022-10-26T03:47:06.991Z,18.20
2022-10-26T03:50:14.791Z,39.73
2022-10-26T03:53:22.329Z,24.67
2022-10-26T03:56:28.583Z,22.80
2022-10-26T03:59:34.805Z,58.07
2022-10-26T04:02:40.998Z,72.60
2022-10-26T04:05:47.226Z,54.40
2022-10-26T04:08:58.348Z,36.20
2022-10-26T04:12:04.579Z,23.20
2022-10-26T04:15:11.488Z,18.60
2022-10-26T04:18:17.679Z,21.77
2022-10-26T04:21:23.540Z,27.83
2022-10-26T04:24:31.111Z,15.70
2022-10-26T04:27:37.087Z,12.27
2022-10-26T04:30:43.698Z,21.80
2022-10-26T04:33:49.938Z,22.87
2022-10-26T04:36:57.141Z,31.90
2022-10-26T04:43:15.865Z,27.20
2022-10-26T04:46:21.880Z,71.80
2022-10-26T04:49:28.412Z,55.73
2022-10-26T04:52:34.718Z,96.53
2022-10-26T04:55:42.477Z,46.77
2022-10-26T04:58:48.587Z,36.67
2022-10-26T05:01:55.020Z,43.03
2022-10-26T05:08:13.000Z,26.70
2022-10-26T05:11:20.740Z,34.10
2022-10-26T05:14:26.732Z,25.63
2022-10-26T05:17:33.047Z,16.63
2022-10-26T05:20:39.250Z,10.23
2022-10-26T05:23:47.094Z,10.33
2022-10-26T05:26:54.621Z,15.03
2022-10-26T05:30:00.616Z,32.87
2022-10-26T05:33:07.715Z,52.73
2022-10-26T05:36:13.907Z,56.33
2022-10-26T05:39:20.087Z,38.73
2022-10-26T05:42:27.761Z,45.77
2022-10-26T05:45:33.814Z,33.43
2022-10-26T05:48:40.048Z,23.10
2022-10-26T05:51:46.269Z,51.97
2022-10-26T05:54:52.452Z,45.77
2022-10-26T05:58:00.718Z,64.80
2022-10-26T06:01:15.327Z,49.13
2022-10-26T06:04:31.199Z,48.47
2022-10-26T06:07:38.059Z,32.20
2022-10-26T06:10:44.686Z,35.87
2022-10-26T06:13:54.842Z,36.07
2022-10-26T06:17:13.275Z,72.67
2022-10-26T06:20:40.868Z,59.13
2022-10-26T06:23:53.378Z,43.17
2022-10-26T06:27:06.643Z,36.63
2022-10-26T06:30:14.603Z,48.13
2022-10-26T06:33:30.328Z,23.20
2022-10-26T06:36:37.778Z,23.33
2022-10-26T06:39:49.992Z,21.03
2022-10-26T06:42:59.448Z,14.13
2022-10-26T06:46:17.693Z,12.27
2022-10-26T06:49:30.308Z,15.53
2022-10-26T06:52:42.867Z,17.17
2022-10-26T06:55:51.644Z,26.93
2022-10-26T06:59:07.036Z,25.90
2022-10-26T07:02:15.164Z,16.50
2022-10-26T07:05:21.123Z,18.50
2022-10-26T07:08:27.431Z,13.17
2022-10-26T07:11:33.814Z,12.33
2022-10-26T07:14:40.236Z,13.37
2022-10-26T07:17:49.681Z,16.17
2022-10-26T07:20:56.008Z,17.43
2022-10-26T07:24:02.461Z,19.53
2022-10-26T07:27:09.011Z,22.73
2022-10-26T07:30:15.266Z,16.50
2022-10-26T07:33:22.925Z,18.03
2022-10-26T07:36:30.407Z,14.60
2022-10-26T07:39:36.574Z,14.50
2022-10-26T07:42:44.285Z,17.27
2022-10-26T07:45:54.033Z,13.97
2022-10-26T07:49:01.682Z,13.10
2022-10-26T07:52:07.640Z,18.07
2022-10-26T07:55:14.274Z,12.13
2022-10-26T07:58:23.645Z,19.40
2022-10-26T08:01:29.818Z,13.33
2022-10-26T08:04:37.175Z,22.33
2022-10-26T08:07:44.850Z,13.23
2022-10-26T08:10:52.370Z,13.83
2022-10-26T08:13:58.655Z,9.27
2022-10-26T08:17:04.971Z,18.67
2022-10-26T08:20:13.458Z,16.97
2022-10-26T08:23:19.291Z,16.97
2022-10-26T08:26:25.662Z,17.57
2022-10-26T08:29:31.938Z,25.33
2022-10-26T08:32:38.471Z,16.33
2022-10-26T08:35:45.976Z,15.87
2022-10-26T08:38:52.642Z,11.43
2022-10-26T08:42:05.677Z,18.00
2022-10-26T08:45:19.468Z,14.63
2022-10-26T08:48:30.419Z,17.60
2022-10-26T08:51:41.463Z,18.00
2022-10-26T08:54:53.222Z,11.93
2022-10-26T08:58:02.646Z,12.73
2022-10-26T09:01:10.525Z,12.43
2022-10-26T09:04:17.078Z,16.93
2022-10-26T09:07:41.415Z,16.30
2022-10-26T09:11:01.203Z,9.33
2022-10-26T09:14:16.650Z,13.10
2022-10-26T09:17:38.076Z,6.63
2022-10-26T09:20:55.941Z,12.03
2022-10-26T09:24:09.149Z,9.17
2022-10-26T09:27:22.653Z,7.17
2022-10-26T09:30:30.384Z,10.43
2022-10-26T09:33:40.959Z,5.37
2022-10-26T09:36:47.379Z,9.67
2022-10-26T09:40:08.735Z,9.80
2022-10-26T09:43:19.742Z,6.10
2022-10-26T09:46:32.484Z,8.50
2022-10-26T09:49:48.745Z,4.77
2022-10-26T09:52:55.043Z,5.63
2022-10-26T09:56:07.000Z,4.50
2022-10-26T09:59:14.559Z,8.80
2022-10-26T10:02:37.230Z,5.03
2022-10-26T10:05:51.366Z,6.07
2022-10-26T10:09:11.105Z,3.70
2022-10-26T10:12:22.428Z,6.80
2022-10-26T10:15:28.579Z,6.13
2022-10-26T10:18:36.412Z,6.73
2022-10-26T10:21:49.710Z,4.73
2022-10-26T10:24:57.558Z,2.93
2022-10-26T10:31:33.604Z,6.93
2022-10-26T10:34:39.702Z,4.37
2022-10-26T10:37:47.010Z,10.43
2022-10-26T10:40:56.618Z,7.07
2022-10-26T10:44:09.210Z,6.23
2022-10-26T10:47:24.141Z,5.63
2022-10-26T10:50:31.427Z,6.27
2022-10-26T10:53:45.167Z,10.00
2022-10-26T10:56:54.513Z,5.67
2022-10-26T11:00:05.825Z,9.67
2022-10-26T11:03:34.625Z,6.77
2022-10-26T11:06:43.871Z,4.57
2022-10-26T11:13:11.709Z,9.50
2022-10-26T11:16:24.972Z,6.27
2022-10-26T11:19:36.351Z,4.07
2022-10-26T11:22:48.445Z,4.23
2022-10-26T11:26:00.547Z,4.20
2022-10-26T11:29:13.487Z,7.63
2022-10-26T11:32:25.016Z,3.20
2022-10-26T11:35:34.459Z,5.90
2022-10-26T11:38:56.346Z,2.20
2022-10-26T11:42:08.665Z,10.53
2022-10-26T11:45:23.631Z,8.80
2022-10-26T11:48:37.851Z,5.17
2022-10-26T11:51:51.354Z,8.13
2022-10-26T11:55:00.659Z,2.70
2022-10-26T11:58:07.014Z,10.27
2022-10-26T12:01:16.861Z,7.33
2022-10-26T12:04:31.004Z,8.03
2022-10-26T12:07:40.223Z,9.67
2022-10-26T12:10:54.030Z,2.80
2022-10-26T12:14:06.040Z,4.77
2022-10-26T12:17:18.518Z,6.33
2022-10-26T12:21:03.657Z,5.73
2022-10-26T12:24:28.416Z,3.23
2022-10-26T12:27:51.958Z,8.43
2022-10-26T12:31:43.443Z,6.03
2022-10-26T12:35:02.131Z,7.80
2022-10-26T12:38:50.017Z,2.83
2022-10-26T12:41:59.920Z,3.97
2022-10-26T12:45:20.127Z,7.20
2022-10-26T12:48:41.338Z,3.30
2022-10-26T12:51:47.667Z,2.80
2022-10-26T12:55:16.437Z,5.23
2022-10-26T12:58:46.648Z,9.07
2022-10-26T13:02:40.174Z,9.23
2022-10-26T13:06:18.390Z,5.77
2022-10-26T13:09:28.957Z,3.93
2022-10-26T13:12:48.113Z,13.03
2022-10-26T13:15:58.768Z,2.70
2022-10-26T13:19:05.014Z,7.33
2022-10-26T13:22:17.316Z,10.10
2022-10-26T13:25:26.185Z,9.87
2022-10-26T13:28:43.521Z,6.50
2022-10-26T13:31:59.128Z,3.20
2022-10-26T13:35:07.658Z,12.53
2022-10-26T13:38:19.671Z,13.23
2022-10-26T13:41:36.353Z,2.97
2022-10-26T13:44:49.368Z,12.47
2022-10-26T13:48:03.107Z,3.67
2022-10-26T13:51:21.254Z,5.20
2022-10-26T13:54:34.038Z,13.30
2022-10-26T13:57:44.734Z,4.57
2022-10-26T14:01:14.834Z,3.77
2022-10-26T14:04:28.764Z,7.27
2022-10-26T14:07:38.799Z,6.47
2022-10-26T14:10:48.666Z,5.70
2022-10-26T14:13:55.421Z,7.60
2022-10-26T14:17:01.820Z,8.00
2022-10-26T14:20:19.581Z,8.17
2022-10-26T14:23:30.398Z,8.30
2022-10-26T14:26:41.425Z,17.37
2022-10-26T14:30:03.736Z,15.33
2022-10-26T14:33:20.856Z,15.10
2022-10-26T14:36:33.128Z,12.27
2022-10-26T14:39:43.879Z,7.27
2022-10-26T14:42:52.751Z,7.27
2022-10-26T14:45:59.338Z,11.03
2022-10-26T14:49:05.952Z,9.73
2022-10-26T14:52:24.091Z,17.30
2022-10-26T14:55:33.126Z,25.70
2022-10-26T14:58:40.693Z,29.57
2022-10-26T15:01:52.963Z,17.70
2022-10-26T15:05:01.115Z,18.03
2022-10-26T15:08:52.594Z,18.77
2022-10-26T15:12:06.019Z,24.07
2022-10-26T15:18:36.328Z,32.57
2022-10-26T15:21:48.844Z,31.47
2022-10-26T15:24:57.523Z,29.53
2022-10-26T15:28:12.950Z,33.50
2022-10-26T15:31:34.494Z,30.87
2022-10-26T15:34:40.644Z,28.00
2022-10-26T15:37:47.489Z,28.63
2022-10-26T15:40:53.761Z,37.13
2022-10-26T15:44:06.020Z,32.97
2022-10-26T15:47:20.372Z,72.90
2022-10-26T15:50:28.298Z,58.83
2022-10-26T15:53:34.294Z,57.40
2022-10-26T15:56:43.730Z,53.77
2022-10-26T15:59:51.018Z,53.50
2022-10-26T16:02:57.550Z,49.97
2022-10-26T16:06:04.162Z,52.67
2022-10-26T16:09:14.749Z,56.40
2022-10-26T16:12:21.099Z,48.77
2022-10-26T16:15:28.897Z,39.97
2022-10-26T16:18:34.856Z,35.20
2022-10-26T16:21:41.956Z,38.50
2022-10-26T16:24:48.024Z,46.17
2022-10-26T16:27:55.812Z,52.80
2022-10-26T16:31:04.444Z,60.23
2022-10-26T16:34:10.436Z,60.30
2022-10-26T16:37:16.598Z,46.77
2022-10-26T16:40:22.918Z,14.60
2022-10-26T16:43:29.365Z,21.03
2022-10-26T16:46:37.233Z,18.63
2022-10-26T16:49:44.716Z,27.87
2022-10-26T16:52:50.879Z,30.17
2022-10-26T16:56:03.222Z,22.93
2022-10-26T16:59:10.620Z,29.70
2022-10-26T17:02:18.518Z,25.70
2022-10-26T17:05:24.677Z,30.70
2022-10-26T17:08:32.729Z,28.07
2022-10-26T17:11:39.011Z,30.47
2022-10-26T17:14:45.019Z,35.73
2022-10-26T17:17:52.748Z,32.20
2022-10-26T17:20:59.255Z,50.23
2022-10-26T17:24:06.861Z,52.97
2022-10-26T17:27:13.198Z,106.67
2022-10-26T17:30:19.862Z,95.63
2022-10-26T17:33:27.656Z,94.50
2022-10-26T17:36:33.769Z,107.50
2022-10-26T17:39:40.229Z,118.70
2022-10-26T17:42:46.590Z,88.93
2022-10-26T17:45:53.001Z,97.37
2022-10-26T17:49:01.835Z,107.50
2022-10-26T17:52:08.149Z,94.13
2022-10-26T17:55:14.597Z,101.93
2022-10-26T17:58:20.723Z,109.23
2022-10-26T18:01:28.502Z,85.00
2022-10-26T18:04:36.111Z,148.63
2022-10-26T18:07:42.088Z,158.07
2022-10-26T18:10:48.953Z,110.40
2022-10-26T18:13:55.384Z,127.90
2022-10-26T18:17:01.844Z,100.17
2022-10-26T18:20:10.661Z,86.23
2022-10-26T18:23:17.199Z,88.60
2022-10-26T18:26:24.673Z,71.80
2022-10-26T18:29:31.830Z,85.27
2022-10-26T18:32:39.313Z,83.13
2022-10-26T18:35:47.461Z,79.40
2022-10-26T18:38:54.395Z,74.43
2022-10-26T18:42:00.729Z,65.40
2022-10-26T18:45:07.980Z,71.47
2022-10-26T18:48:14.023Z,70.53
2022-10-26T18:51:25.595Z,86.70
2022-10-26T18:54:31.923Z,54.30
2022-10-26T18:57:38.092Z,61.43
2022-10-26T19:00:44.548Z,76.13
2022-10-26T19:03:54.926Z,35.13
2022-10-26T19:07:02.334Z,39.20
2022-10-26T19:10:09.952Z,50.90
2022-10-26T19:13:16.069Z,51.23
2022-10-26T19:16:40.624Z,38.23
2022-10-26T19:19:49.727Z,27.67
2022-10-26T19:22:57.372Z,42.17
2022-10-26T19:26:04.402Z,37.43
2022-10-26T19:29:13.915Z,62.73
2022-10-26T19:32:20.105Z,53.60
2022-10-26T19:35:26.279Z,40.10
2022-10-26T19:38:34.585Z,18.13
2022-10-26T19:41:40.721Z,46.63
2022-10-26T19:44:46.910Z,21.40
2022-10-26T19:47:53.173Z,31.50
2022-10-26T19:50:59.185Z,30.77
2022-10-26T19:54:07.662Z,19.97
2022-10-26T19:57:13.921Z,19.00
2022-10-26T20:00:20.584Z,14.43
2022-10-26T20:03:29.098Z,15.13
2022-10-26T20:06:35.621Z,12.20
2022-10-26T20:09:43.184Z,13.47
2022-10-26T20:12:49.833Z,14.03
2022-10-26T20:15:56.106Z,39.40
2022-10-26T20:19:02.607Z,25.77
2022-10-26T20:22:08.891Z,26.50
2022-10-26T20:25:16.911Z,22.23
2022-10-26T20:28:23.532Z,15.37
2022-10-26T20:31:29.687Z,23.47
2022-10-26T20:34:36.039Z,28.60
2022-10-26T20:37:42.965Z,25.67
2022-10-26T20:40:56.030Z,25.67
2022-10-26T20:44:02.755Z,16.97
2022-10-26T20:47:10.222Z,17.17
2022-10-26T20:50:17.347Z,20.93
2022-10-26T20:53:31.371Z,22.70
2022-10-26T20:56:42.629Z,17.73
2022-10-26T20:59:51.135Z,13.23
2022-10-26T21:02:57.107Z,13.47
2022-10-26T21:06:03.209Z,11.87
2022-10-26T21:09:10.315Z,14.20
2022-10-26T21:12:17.839Z,21.30
2022-10-26T21:15:23.606Z,36.40
2022-10-26T21:18:29.894Z,27.17
2022-10-26T21:21:36.027Z,18.57
2022-10-26T21:24:42.157Z,15.57
2022-10-26T21:27:50.337Z,11.40
2022-10-26T21:30:56.774Z,7.23
2022-10-26T21:34:03.063Z,8.83
2022-10-26T21:37:09.463Z,9.70
2022-10-26T21:40:16.380Z,7.13
2022-10-26T21:43:24.106Z,10.17
2022-10-26T21:46:30.673Z,10.50
2022-10-26T21:49:37.554Z,7.03
2022-10-26T21:52:43.775Z,7.20
2022-10-26T21:55:50.301Z,11.53
2022-10-26T21:59:00.216Z,13.07
2022-10-26T22:02:06.583Z,7.20
2022-10-26T22:05:12.570Z,9.30
2022-10-26T22:08:18.761Z,6.80
2022-10-26T22:11:26.133Z,12.53
2022-10-26T22:14:33.344Z,10.73
2022-10-26T22:17:40.032Z,8.10
2022-10-26T22:20:46.111Z,6.23
2022-10-26T22:23:52.477Z,7.50
2022-10-26T22:26:58.566Z,9.47
2022-10-26T22:30:07.800Z,9.87
2022-10-26T22:33:14.430Z,10.97
2022-10-26T22:36:20.294Z,5.33
2022-10-26T22:39:26.661Z,8.50
2022-10-26T22:42:33.000Z,10.10
2022-10-26T22:45:40.842Z,9.67
2022-10-26T22:48:47.276Z,15.60
2022-10-26T22:51:53.378Z,9.97
2022-10-26T22:54:59.945Z,6.23
2022-10-26T22:58:06.312Z,7.67
2022-10-26T23:01:15.906Z,8.00
2022-10-26T23:04:22.352Z,6.40
2022-10-26T23:07:30.649Z,6.40
2022-10-26T23:10:37.180Z,7.03
2022-10-26T23:13:43.747Z,5.83
2022-10-26T23:16:51.282Z,5.27
2022-10-26T23:19:57.549Z,9.30
2022-10-26T23:23:04.232Z,4.60
2022-10-26T23:26:13.029Z,5.17
2022-10-26T23:29:19.033Z,5.83
2022-10-26T23:32:26.476Z,5.23
2022-10-26T23:35:32.552Z,5.70
2022-10-26T23:38:38.766Z,7.53
2022-10-26T23:41:45.201Z,7.37
2022-10-26T23:44:51.267Z,4.97
2022-10-26T23:47:59.062Z,4.90
2022-10-26T23:51:05.269Z,9.13
2022-10-26T23:54:11.238Z,10.17
2022-10-26T23:57:17.519Z,12.60
